createdAt,value
2023-04-19T00:00:08.449Z,95947.81
2023-04-19T00:02:42.798Z,95945.94
2023-04-19T00:05:16.014Z,95944.13
2023-04-19T00:07:48.023Z,95942.22
2023-04-19T00:10:19.685Z,95937.19
2023-04-19T00:12:51.363Z,95939.56
2023-04-19T00:15:23.055Z,95939.84
2023-04-19T00:17:54.752Z,95938.31
2023-04-19T00:20:26.487Z,95936.66
2023-04-19T00:22:59.137Z,95934.56
2023-04-19T00:25:31.997Z,95933.47
2023-04-19T00:28:04.125Z,95933.13
2023-04-19T00:30:35.798Z,95938.47
2023-04-19T00:33:12.856Z,95928.59
2023-04-19T00:35:44.761Z,95929.38
2023-04-19T00:38:16.439Z,95927.47
2023-04-19T00:40:48.056Z,95920.25
2023-04-19T00:43:20.221Z,95916.06
2023-04-19T00:45:52.212Z,95927.47
2023-04-19T00:48:25.863Z,95914.53
2023-04-19T00:50:57.816Z,95911.75
2023-04-19T00:53:29.809Z,95913.28
2023-04-19T00:56:04.463Z,95917.00
2023-04-19T00:58:37.876Z,95919.66
2023-04-19T01:01:09.395Z,95915.44
2023-04-19T01:03:41.423Z,95914.50
2023-04-19T01:06:13.353Z,95907.38
2023-04-19T01:08:44.802Z,95912.69
2023-04-19T01:11:17.355Z,95907.38
2023-04-19T01:13:48.874Z,95907.03
2023-04-19T01:16:20.540Z,95905.59
2023-04-19T01:18:52.167Z,95895.97
2023-04-19T01:21:23.650Z,95893.84
2023-04-19T01:23:55.370Z,95889.28
2023-04-19T01:26:26.868Z,95891.16
2023-04-19T01:28:58.383Z,95891.53
2023-04-19T01:31:29.979Z,95889.44
2023-04-19T01:34:01.493Z,95884.13
2023-04-19T01:36:32.921Z,95885.59
2023-04-19T01:39:05.938Z,95881.47
2023-04-19T01:41:37.708Z,95881.03
2023-04-19T01:44:09.197Z,95877.25
2023-04-19T01:46:42.610Z,95880.00
2023-04-19T01:49:14.188Z,95881.19
2023-04-19T01:51:45.804Z,95879.22
2023-04-19T01:54:17.461Z,95876.16
2023-04-19T01:56:49.220Z,95862.16
2023-04-19T01:59:20.695Z,95866.28
2023-04-19T02:01:52.269Z,95869.72
2023-04-19T02:04:23.839Z,95869.38
2023-04-19T02:06:55.610Z,95858.72
2023-04-19T02:09:27.149Z,95862.94
2023-04-19T02:11:59.711Z,95860.28
2023-04-19T02:14:32.155Z,95862.94
2023-04-19T02:17:03.781Z,95851.16
2023-04-19T02:19:35.305Z,95853.50
2023-04-19T02:22:06.810Z,95852.28
2023-04-19T02:24:38.207Z,95846.97
2023-04-19T02:27:09.802Z,95849.63
2023-04-19T02:29:41.301Z,95844.31
2023-04-19T02:32:13.165Z,95851.53
2023-04-19T02:34:44.613Z,95840.88
2023-04-19T02:37:16.272Z,95836.00
2023-04-19T02:39:47.777Z,95836.78
2023-04-19T02:42:19.262Z,95833.25
2023-04-19T02:44:50.797Z,95829.28
2023-04-19T02:47:22.302Z,95831.53
2023-04-19T02:49:53.820Z,95829.91
2023-04-19T02:52:26.997Z,95828.34
2023-04-19T02:54:58.469Z,95827.25
2023-04-19T02:57:30.420Z,95821.94
2023-04-19T03:00:02.146Z,95822.72
2023-04-19T03:02:34.693Z,95823.38
2023-04-19T03:05:06.595Z,95826.81
2023-04-19T03:07:38.160Z,95825.97
2023-04-19T03:10:10.069Z,95820.56
2023-04-19T03:12:41.576Z,95818.34
2023-04-19T03:15:13.076Z,95812.59
2023-04-19T03:17:44.642Z,95809.94
2023-04-19T03:20:17.097Z,95807.78
2023-04-19T03:22:49.236Z,95812.31
2023-04-19T03:25:20.922Z,95802.28
2023-04-19T03:27:52.456Z,95804.50
2023-04-19T03:30:23.891Z,95803.03
2023-04-19T03:32:55.725Z,95805.38
2023-04-19T03:35:29.264Z,95796.72
2023-04-19T03:38:00.769Z,95794.41
2023-04-19T03:40:37.362Z,95796.28
2023-04-19T03:43:08.955Z,95786.50
2023-04-19T03:45:40.437Z,95794.47
2023-04-19T03:48:12.007Z,95792.16
2023-04-19T03:50:43.507Z,95791.16
2023-04-19T03:53:14.973Z,95786.78
2023-04-19T03:55:46.434Z,95788.31
2023-04-19T03:58:18.200Z,95784.44
2023-04-19T04:00:49.691Z,95794.47
2023-04-19T04:03:21.341Z,95788.84
2023-04-19T04:05:53.156Z,95792.50
2023-04-19T04:08:24.702Z,95791.38
2023-04-19T04:10:56.269Z,95793.81
2023-04-19T04:13:27.777Z,95793.19
2023-04-19T04:15:59.312Z,95790.28
2023-04-19T04:18:30.899Z,95796.00
2023-04-19T04:21:02.407Z,95789.25
2023-04-19T04:23:33.909Z,95799.78
2023-04-19T04:26:06.180Z,95804.34
2023-04-19T04:28:38.043Z,95803.28
2023-04-19T04:31:09.913Z,95788.53
2023-04-19T04:33:41.667Z,95799.91
2023-04-19T04:36:13.545Z,95799.56
2023-04-19T04:38:45.050Z,95796.25
2023-04-19T04:41:16.697Z,95801.22
2023-04-19T04:44:04.483Z,95795.56
2023-04-19T04:46:40.116Z,95789.81
2023-04-19T04:49:11.619Z,95797.44
2023-04-19T04:51:44.303Z,95786.59
2023-04-19T04:54:16.039Z,95790.44
2023-04-19T04:56:47.762Z,95793.47
2023-04-19T04:59:19.290Z,95794.38
2023-04-19T05:01:50.863Z,95792.25
2023-04-19T05:04:22.404Z,95793.34
2023-04-19T05:06:53.908Z,95793.44
2023-04-19T05:09:25.567Z,95791.91
2023-04-19T05:11:57.294Z,95785.88
2023-04-19T05:14:28.825Z,95789.81
2023-04-19T05:17:00.367Z,95788.72
2023-04-19T05:19:31.885Z,95784.34
2023-04-19T05:22:03.665Z,95786.34
2023-04-19T05:24:35.509Z,95782.63
2023-04-19T05:27:07.230Z,95787.59
2023-04-19T05:29:38.761Z,95794.91
2023-04-19T05:32:10.309Z,95787.19
2023-04-19T05:34:41.839Z,95785.13
2023-04-19T05:37:13.276Z,95783.50
2023-04-19T05:39:44.975Z,95782.28
2023-04-19T05:42:16.602Z,95785.94
2023-04-19T05:44:48.162Z,95788.03
2023-04-19T05:47:19.812Z,95781.50
2023-04-19T05:49:51.383Z,95777.06
2023-04-19T05:52:23.051Z,95785.75
2023-04-19T05:54:55.214Z,95780.41
2023-04-19T05:57:26.789Z,95781.84
2023-04-19T06:02:32.855Z,95777.41
2023-04-19T06:05:09.851Z,95780.91
2023-04-19T06:07:50.262Z,95776.91
2023-04-19T06:10:31.221Z,95780.94
2023-04-19T06:13:08.652Z,95781.88
2023-04-19T06:15:40.433Z,95784.53
2023-04-19T06:18:19.124Z,95785.91
2023-04-19T06:20:53.191Z,95784.28
2023-04-19T06:23:25.486Z,95784.94
2023-04-19T06:25:56.829Z,95781.09
2023-04-19T06:28:28.306Z,95784.19
2023-04-19T06:30:59.802Z,95784.88
2023-04-19T06:33:31.489Z,95777.75
2023-04-19T06:36:03.202Z,95779.81
2023-04-19T06:38:34.942Z,95778.34
2023-04-19T06:46:56.508Z,95777.69
2023-04-19T06:49:28.015Z,95779.91
2023-04-19T06:52:00.245Z,95774.34
2023-04-19T06:54:31.751Z,95773.75
2023-04-19T06:57:03.607Z,95771.44
2023-04-19T06:59:38.689Z,95776.88
2023-04-19T07:02:10.412Z,95771.31
2023-04-19T07:04:42.058Z,95773.63
2023-04-19T07:07:13.906Z,95773.38
2023-04-19T07:09:45.637Z,95768.16
2023-04-19T07:12:17.111Z,95762.84
2023-04-19T07:14:48.568Z,95762.34
2023-04-19T07:17:20.043Z,95766.09
2023-04-19T07:19:51.528Z,95767.28
2023-04-19T07:22:23.033Z,95768.59
2023-04-19T07:24:54.675Z,95772.88
2023-04-19T07:27:26.624Z,95765.94
2023-04-19T07:29:58.231Z,95768.25
2023-04-19T07:32:31.294Z,95771.06
2023-04-19T07:35:02.859Z,95762.16
2023-04-19T07:37:34.819Z,95763.88
2023-04-19T07:40:06.942Z,95760.28
2023-04-19T07:42:38.488Z,95760.63
2023-04-19T07:45:10.474Z,95756.66
2023-04-19T07:47:42.031Z,95750.47
2023-04-19T07:50:13.693Z,95753.41
2023-04-19T07:52:45.302Z,95742.34
2023-04-19T07:55:17.120Z,95743.56
2023-04-19T07:57:49.801Z,95747.50
2023-04-19T08:00:23.874Z,95741.13
2023-04-19T08:02:57.231Z,95738.91
2023-04-19T08:05:30.000Z,95740.91
2023-04-19T08:08:04.648Z,95741.13
2023-04-19T08:10:38.836Z,95745.53
2023-04-19T08:13:10.406Z,95736.94
2023-04-19T08:18:16.732Z,95743.88
2023-04-19T08:20:48.384Z,95735.56
2023-04-19T08:23:24.422Z,95734.91
2023-04-19T08:25:59.181Z,95739.03
2023-04-19T08:28:31.268Z,95735.47
2023-04-19T08:31:07.492Z,95738.69
2023-04-19T08:33:39.058Z,95731.75
2023-04-19T08:36:10.642Z,95731.03
2023-04-19T08:38:46.562Z,95728.81
2023-04-19T08:41:23.223Z,95734.25
2023-04-19T08:43:56.059Z,95730.72
2023-04-19T08:46:27.813Z,95722.16
2023-04-19T08:49:00.795Z,95727.91
2023-04-19T08:51:32.879Z,95719.59
2023-04-19T08:54:05.397Z,95722.22
2023-04-19T08:56:37.312Z,95721.41
2023-04-19T08:59:18.170Z,95715.72
2023-04-19T09:01:51.898Z,95712.38
2023-04-19T09:04:36.281Z,95705.16
2023-04-19T09:07:09.021Z,95704.66
2023-04-19T09:09:51.923Z,95707.28
2023-04-19T09:12:31.531Z,95706.94
2023-04-19T09:15:04.588Z,95709.31
2023-04-19T09:17:38.272Z,95700.28
2023-04-19T09:20:09.914Z,95691.16
2023-04-19T09:22:41.439Z,95698.56
2023-04-19T09:28:09.908Z,95685.56
2023-04-19T09:33:33.083Z,95690.22
2023-04-19T09:36:05.079Z,95673.56
2023-04-19T09:38:49.723Z,95682.41
2023-04-19T09:41:21.496Z,95674.16
2023-04-19T09:44:11.689Z,95673.69
2023-04-19T09:46:46.445Z,95676.16
2023-04-19T09:49:27.947Z,95669.44
2023-04-19T09:52:13.652Z,95669.63
2023-04-19T09:54:46.118Z,95668.66
2023-04-19T09:57:17.675Z,95658.88
2023-04-19T09:59:49.306Z,95658.88
2023-04-19T10:02:22.647Z,95656.88
2023-04-19T10:05:11.089Z,95655.66
2023-04-19T10:10:27.572Z,95641.53
2023-04-19T10:15:52.716Z,95649.59
2023-04-19T10:18:27.411Z,95637.84
2023-04-19T10:21:01.497Z,95634.75
2023-04-19T10:23:33.827Z,95632.31
2023-04-19T10:26:06.197Z,95625.28
2023-04-19T10:28:38.153Z,95625.47
2023-04-19T10:31:13.229Z,95621.59
2023-04-19T10:33:44.845Z,95617.97
2023-04-19T10:36:17.619Z,95615.63
2023-04-19T10:38:55.601Z,95605.41
2023-04-19T10:42:02.087Z,95609.97
2023-04-19T10:44:33.585Z,95622.72
2023-04-19T10:47:07.913Z,95611.44
2023-04-19T10:49:46.581Z,95603.94
2023-04-19T10:52:29.650Z,95603.56
2023-04-19T10:55:04.205Z,95608.31
2023-04-19T10:58:01.549Z,95606.69
2023-04-19T11:00:33.601Z,95595.66
2023-04-19T11:03:42.623Z,95591.50
2023-04-19T11:06:27.026Z,95587.66
2023-04-19T11:08:58.642Z,95588.72
2023-04-19T11:11:33.885Z,95585.00
2023-04-19T11:14:08.362Z,95578.84
2023-04-19T11:16:45.657Z,95581.22
2023-04-19T11:19:18.992Z,95570.81
2023-04-19T11:21:50.942Z,95567.78
2023-04-19T11:24:24.597Z,95570.22
2023-04-19T11:26:57.671Z,95568.16
2023-04-19T11:29:29.200Z,95565.25
2023-04-19T11:32:01.017Z,95556.91
2023-04-19T11:34:37.862Z,95553.78
2023-04-19T11:37:11.652Z,95551.28
2023-04-19T11:39:47.465Z,95553.09
2023-04-19T11:42:20.407Z,95546.34
2023-04-19T11:44:52.438Z,95547.50
2023-04-19T11:47:24.313Z,95550.06
2023-04-19T11:49:56.554Z,95550.34
2023-04-19T11:52:27.990Z,95549.84
2023-04-19T11:55:18.292Z,95548.97
2023-04-19T11:57:49.980Z,95547.34
2023-04-19T12:00:28.446Z,95550.09
2023-04-19T12:03:01.983Z,95555.31
2023-04-19T12:05:34.104Z,95558.22
2023-04-19T12:08:08.497Z,95556.59
2023-04-19T12:10:55.596Z,95551.28
2023-04-19T12:13:27.183Z,95546.28
2023-04-19T12:15:59.377Z,95550.00
2023-04-19T12:18:44.695Z,95550.81
2023-04-19T12:21:32.117Z,95541.84
2023-04-19T12:24:03.944Z,95540.31
2023-04-19T12:26:36.259Z,95540.44
2023-04-19T12:29:07.691Z,95537.00
2023-04-19T12:31:39.287Z,95540.19
2023-04-19T12:34:10.927Z,95538.09
2023-04-19T12:36:42.456Z,95538.44
2023-04-19T12:39:14.194Z,95543.03
2023-04-19T12:41:48.672Z,95542.34
2023-04-19T12:44:20.233Z,95537.56
2023-04-19T12:46:52.564Z,95529.97
2023-04-19T12:49:24.357Z,95525.59
2023-04-19T12:51:57.346Z,95533.66
2023-04-19T12:54:29.235Z,95534.53
2023-04-19T12:57:03.368Z,95526.38
2023-04-19T12:59:35.037Z,95530.53
2023-04-19T13:02:07.301Z,95532.84
2023-04-19T13:04:39.094Z,95537.47
2023-04-19T13:07:10.875Z,95522.88
2023-04-19T13:09:42.525Z,95525.53
2023-04-19T13:12:14.145Z,95527.38
2023-04-19T13:14:50.125Z,95516.34
2023-04-19T13:17:22.199Z,95516.19
2023-04-19T13:19:53.794Z,95519.75
2023-04-19T13:22:26.746Z,95519.22
2023-04-19T13:24:58.827Z,95522.25
2023-04-19T13:27:30.493Z,95512.03
2023-04-19T13:30:02.130Z,95516.78
2023-04-19T13:32:34.276Z,95505.38
2023-04-19T13:35:06.478Z,95511.50
2023-04-19T13:37:40.236Z,95504.16
2023-04-19T13:40:21.131Z,95501.50
2023-04-19T13:42:54.306Z,95500.78
2023-04-19T13:45:25.921Z,95504.31
2023-04-19T13:47:57.541Z,95498.63
2023-04-19T13:50:29.263Z,95499.03
2023-04-19T13:53:00.781Z,95502.81
2023-04-19T13:55:32.387Z,95502.41
2023-04-19T13:58:03.985Z,95511.38
2023-04-19T14:00:35.589Z,95497.38
2023-04-19T14:03:07.319Z,95499.91
2023-04-19T14:05:38.941Z,95499.31
2023-04-19T14:08:10.640Z,95496.81
2023-04-19T14:10:42.360Z,95496.50
2023-04-19T14:13:13.830Z,95502.19
2023-04-19T14:15:45.383Z,95503.31
2023-04-19T14:18:16.950Z,95505.13
2023-04-19T14:20:48.488Z,95510.53
2023-04-19T14:23:20.264Z,95507.38
2023-04-19T14:25:51.788Z,95508.22
2023-04-19T14:28:23.219Z,95505.44
2023-04-19T14:30:54.854Z,95510.59
2023-04-19T14:33:26.853Z,95514.03
2023-04-19T14:35:58.436Z,95513.25
2023-04-19T14:38:29.906Z,95512.44
2023-04-19T14:41:01.584Z,95514.16
2023-04-19T14:43:33.149Z,95520.66
2023-04-19T14:46:04.815Z,95508.59
2023-04-19T14:48:36.413Z,95513.84
2023-04-19T14:51:08.102Z,95514.94
2023-04-19T14:53:39.568Z,95519.06
2023-04-19T14:56:11.130Z,95517.97
2023-04-19T14:58:42.653Z,95523.66
2023-04-19T15:01:14.916Z,95529.91
2023-04-19T15:03:46.641Z,95529.72
2023-04-19T15:06:18.521Z,95526.22
2023-04-19T15:08:50.028Z,95524.69
2023-04-19T15:11:21.860Z,95530.34
2023-04-19T15:13:53.663Z,95533.09
2023-04-19T15:16:25.264Z,95541.91
2023-04-19T15:18:57.225Z,95552.81
2023-04-19T15:21:29.057Z,95552.22
2023-04-19T15:24:01.479Z,95553.75
2023-04-19T15:26:33.221Z,95553.41
2023-04-19T15:29:04.766Z,95556.84
2023-04-19T15:31:36.481Z,95559.41
2023-04-19T15:34:08.164Z,95563.50
2023-04-19T15:36:40.808Z,95563.94
2023-04-19T15:39:12.286Z,95559.13
2023-04-19T15:41:43.815Z,95562.66
2023-04-19T15:44:15.668Z,95566.84
2023-04-19T15:46:47.274Z,95561.16
2023-04-19T15:49:19.122Z,95563.06
2023-04-19T15:51:50.962Z,95567.97
2023-04-19T15:54:23.046Z,95566.25
2023-04-19T15:56:55.972Z,95566.69
2023-04-19T15:59:27.488Z,95566.75
2023-04-19T16:01:59.031Z,95565.66
2023-04-19T16:04:31.338Z,95558.53
2023-04-19T16:07:02.973Z,95562.38
2023-04-19T16:09:34.466Z,95564.03
2023-04-19T16:12:06.135Z,95570.63
2023-04-19T16:14:37.692Z,95576.69
2023-04-19T16:17:09.406Z,95572.50
2023-04-19T16:19:40.899Z,95575.41
2023-04-19T16:22:12.475Z,95580.28
2023-04-19T16:24:46.376Z,95580.53
2023-04-19T16:27:17.914Z,95585.34
2023-04-19T16:29:49.430Z,95582.75
2023-04-19T16:32:21.029Z,95575.06
2023-04-19T16:34:52.626Z,95581.72
2023-04-19T16:37:24.135Z,95584.00
2023-04-19T16:39:55.949Z,95578.28
2023-04-19T16:42:27.505Z,95589.31
2023-04-19T16:44:58.957Z,95591.78
2023-04-19T16:47:31.109Z,95598.22
2023-04-19T16:50:03.626Z,95601.50
2023-04-19T16:52:35.795Z,95593.38
2023-04-19T16:55:07.821Z,95586.97
2023-04-19T16:57:39.377Z,95582.25
2023-04-19T17:00:12.007Z,95579.97
2023-04-19T17:02:43.696Z,95575.44
2023-04-19T17:05:16.272Z,95576.69
2023-04-19T17:07:47.708Z,95578.66
2023-04-19T17:10:19.279Z,95586.94
2023-04-19T17:12:50.841Z,95579.47
2023-04-19T17:15:22.515Z,95567.66
2023-04-19T17:17:54.126Z,95566.22
2023-04-19T17:20:26.079Z,95569.13
2023-04-19T17:22:57.603Z,95569.69
2023-04-19T17:25:29.205Z,95562.50
2023-04-19T17:28:00.779Z,95564.59
2023-04-19T17:30:32.718Z,95549.47
2023-04-19T17:33:04.274Z,95538.88
2023-04-19T17:35:35.970Z,95540.09
2023-04-19T17:38:07.749Z,95554.00
2023-04-19T17:40:39.264Z,95546.16
2023-04-19T17:43:11.007Z,95540.75
2023-04-19T17:45:42.944Z,95526.63
2023-04-19T17:48:14.615Z,95541.88
2023-04-19T17:50:47.598Z,95546.28
2023-04-19T17:53:19.155Z,95547.72
2023-04-19T17:55:51.052Z,95536.38
2023-04-19T17:58:22.585Z,95527.31
2023-04-19T18:00:54.033Z,95534.06
2023-04-19T18:03:25.681Z,95533.28
2023-04-19T18:05:57.392Z,95538.91
2023-04-19T18:08:29.414Z,95543.97
2023-04-19T18:11:01.097Z,95543.97
2023-04-19T18:13:32.626Z,95535.25
2023-04-19T18:16:07.149Z,95536.03
2023-04-19T18:18:38.939Z,95536.38
2023-04-19T18:21:10.525Z,95543.53
2023-04-19T18:23:42.695Z,95538.59
2023-04-19T18:26:14.304Z,95536.59
2023-04-19T18:28:48.207Z,95538.59
2023-04-19T18:31:20.865Z,95554.56
2023-04-19T18:33:52.403Z,95554.22
2023-04-19T18:36:23.979Z,95552.34
2023-04-19T18:38:55.956Z,95555.34
2023-04-19T18:41:27.452Z,95562.41
2023-04-19T18:44:28.360Z,95569.59
2023-04-19T18:46:54.970Z,95572.66
2023-04-19T18:49:27.201Z,95570.78
2023-04-19T18:51:59.707Z,95584.88
2023-04-19T18:54:31.229Z,95585.22
2023-04-19T18:59:38.083Z,95588.75
2023-04-19T19:02:10.309Z,95592.00
2023-04-19T19:04:51.898Z,95580.63
2023-04-19T19:07:36.369Z,95577.53
2023-04-19T19:10:19.114Z,95582.81
2023-04-19T19:12:53.178Z,95585.69
2023-04-19T19:15:25.161Z,95596.38
2023-04-19T19:17:56.919Z,95584.06
2023-04-19T19:20:28.558Z,95583.38
2023-04-19T19:23:01.460Z,95592.75
2023-04-19T19:25:34.757Z,95590.75
2023-04-19T19:28:09.946Z,95589.34
2023-04-19T19:30:44.833Z,95585.47
2023-04-19T19:33:17.360Z,95589.66
2023-04-19T19:35:50.227Z,95591.44
2023-04-19T19:38:21.785Z,95592.00
2023-04-19T19:41:30.991Z,95603.66
2023-04-19T19:43:45.433Z,95603.78
2023-04-19T19:46:16.997Z,95604.22
2023-04-19T19:48:52.679Z,95607.53
2023-04-19T19:53:59.855Z,95606.78
2023-04-19T19:56:31.356Z,95592.09
2023-04-19T19:59:02.979Z,95586.03
2023-04-19T20:01:34.492Z,95586.03
2023-04-19T20:04:07.337Z,95589.09
2023-04-19T20:07:25.329Z,95584.91
2023-04-19T20:09:30.665Z,95586.69
2023-04-19T20:12:02.535Z,95585.59
2023-04-19T20:14:37.970Z,95579.06
2023-04-19T20:17:09.652Z,95586.13
2023-04-19T20:19:42.602Z,95584.81
2023-04-19T20:22:14.255Z,95581.50
2023-04-19T20:24:46.328Z,95581.72
2023-04-19T20:27:17.923Z,95575.97
2023-04-19T20:29:49.626Z,95571.25
2023-04-19T20:32:21.296Z,95577.00
2023-04-19T20:34:53.839Z,95570.94
2023-04-19T20:37:27.166Z,95570.47
2023-04-19T20:39:59.898Z,95577.75
2023-04-19T20:42:31.593Z,95574.56
2023-04-19T20:45:03.810Z,95573.56
2023-04-19T20:47:37.335Z,95570.03
2023-04-19T20:50:12.336Z,95562.75
2023-04-19T20:52:43.826Z,95566.50
2023-04-19T20:55:16.366Z,95567.63
2023-04-19T20:57:47.848Z,95571.81
2023-04-19T21:00:19.483Z,95568.50
2023-04-19T21:02:51.314Z,95568.06
2023-04-19T21:05:22.998Z,95558.88
2023-04-19T21:07:54.568Z,95554.38
2023-04-19T21:10:26.215Z,95545.34
2023-04-19T21:12:57.788Z,95548.41
2023-04-19T21:15:29.338Z,95546.13
2023-04-19T21:18:00.894Z,95534.09
2023-04-19T21:20:33.823Z,95535.97
2023-04-19T21:23:05.886Z,95530.56
2023-04-19T21:25:37.422Z,95533.31
2023-04-19T21:28:08.984Z,95527.25
2023-04-19T21:30:40.849Z,95533.66
2023-04-19T21:33:12.572Z,95530.56
2023-04-19T21:35:44.126Z,95529.13
2023-04-19T21:38:15.755Z,95534.09
2023-04-19T21:40:48.756Z,95526.13
2023-04-19T21:43:20.370Z,95526.22
2023-04-19T21:45:52.080Z,95529.66
2023-04-19T21:48:23.630Z,95518.63
2023-04-19T21:50:55.172Z,95525.28
2023-04-19T21:53:26.742Z,95526.56
2023-04-19T21:55:58.444Z,95528.66
2023-04-19T21:58:29.949Z,95522.47
2023-04-19T22:01:01.496Z,95523.38
2023-04-19T22:03:33.211Z,95520.41
2023-04-19T22:06:05.032Z,95506.41
2023-04-19T22:08:36.585Z,95508.47
2023-04-19T22:11:08.062Z,95508.03
2023-04-19T22:13:39.666Z,95503.19
2023-04-19T22:16:11.364Z,95505.50
2023-04-19T22:18:43.171Z,95502.97
2023-04-19T22:21:14.674Z,95500.53
2023-04-19T22:23:46.364Z,95496.78
2023-04-19T22:26:18.161Z,95490.72
2023-04-19T22:28:49.626Z,95491.50
2023-04-19T22:31:21.144Z,95490.28
2023-04-19T22:33:52.623Z,95490.28
2023-04-19T22:36:24.190Z,95480.06
2023-04-19T22:38:55.828Z,95480.47
2023-04-19T22:41:27.380Z,95479.50
2023-04-19T22:43:59.359Z,95484.13
2023-04-19T22:46:31.093Z,95488.44
2023-04-19T22:49:03.275Z,95479.47
2023-04-19T22:51:36.719Z,95489.41
2023-04-19T22:54:09.653Z,95480.50
2023-04-19T22:56:41.312Z,95486.00
2023-04-19T22:59:13.517Z,95481.91
2023-04-19T23:01:45.136Z,95482.25
2023-04-19T23:04:17.107Z,95473.63
2023-04-19T23:06:48.781Z,95459.19
2023-04-19T23:09:20.323Z,95462.53
2023-04-19T23:11:51.884Z,95448.28
2023-04-19T23:14:24.600Z,95452.94
2023-04-19T23:16:57.210Z,95447.97
2023-04-19T23:19:28.699Z,95444.22
2023-04-19T23:22:00.445Z,95444.22
2023-04-19T23:24:32.075Z,95443.75
2023-04-19T23:27:04.492Z,95445.22
2023-04-19T23:29:35.815Z,95441.34
2023-04-19T23:32:07.386Z,95432.31
2023-04-19T23:34:38.916Z,95434.97
2023-04-19T23:37:12.028Z,95429.75
2023-04-19T23:39:43.688Z,95428.25
2023-04-19T23:42:15.277Z,95421.00
2023-04-19T23:44:46.794Z,95413.16
2023-04-19T23:47:18.340Z,95416.66
2023-04-19T23:49:49.813Z,95419.31
2023-04-19T23:52:22.726Z,95414.78
2023-04-19T23:54:54.297Z,95411.81
2023-04-19T23:57:25.866Z,95409.63
2023-04-19T23:59:57.458Z,95405.84
